createdAt,value
2022-11-28T00:01:37.213Z,6.20
2022-11-28T00:04:07.405Z,6.20
2022-11-28T00:06:39.869Z,6.20
2022-11-28T00:09:09.056Z,6.20
2022-11-28T00:11:37.068Z,6.20
2022-11-28T00:14:05.087Z,6.10
2022-11-28T00:16:33.262Z,6.10
2022-11-28T00:19:02.512Z,6.20
2022-11-28T00:21:32.120Z,6.20
2022-11-28T00:24:01.657Z,6.10
2022-11-28T00:26:31.716Z,6.10
2022-11-28T00:29:02.161Z,6.10
2022-11-28T00:31:32.767Z,6.10
2022-11-28T00:34:01.943Z,6.00
2022-11-28T00:36:31.703Z,6.00
2022-11-28T00:38:59.726Z,6.00
2022-11-28T00:41:29.651Z,6.00
2022-11-28T00:43:58.358Z,6.00
2022-11-28T00:46:26.720Z,6.00
2022-11-28T00:48:55.095Z,6.00
2022-11-28T00:51:24.803Z,6.00
2022-11-28T00:53:56.190Z,6.00
2022-11-28T00:56:25.964Z,6.00
2022-11-28T00:58:54.696Z,6.00
2022-11-28T01:01:24.535Z,6.00
2022-11-28T01:03:54.989Z,6.00
2022-11-28T01:06:25.277Z,6.00
2022-11-28T01:08:55.734Z,6.00
2022-11-28T01:11:24.383Z,6.00
2022-11-28T01:13:54.566Z,6.00
2022-11-28T01:16:22.716Z,6.00
2022-11-28T01:18:50.870Z,6.00
2022-11-28T01:21:19.885Z,6.00
2022-11-28T01:23:48.096Z,6.00
2022-11-28T01:26:20.554Z,6.00
2022-11-28T01:28:49.317Z,6.00
2022-11-28T01:31:19.355Z,6.00
2022-11-28T01:33:47.600Z,6.10
2022-11-28T01:36:16.550Z,6.00
2022-11-28T01:38:44.836Z,6.00
2022-11-28T01:41:13.758Z,6.00
2022-11-28T01:44:00.180Z,6.00
2022-11-28T01:46:28.610Z,6.00
2022-11-28T01:49:00.277Z,6.00
2022-11-28T01:51:29.301Z,6.00
2022-11-28T01:53:57.745Z,6.00
2022-11-28T01:56:29.297Z,6.00
2022-11-28T01:59:03.811Z,6.00
2022-11-28T02:01:32.513Z,6.00
2022-11-28T02:04:01.059Z,6.10
2022-11-28T02:06:29.284Z,6.00
2022-11-28T02:08:58.963Z,6.10
2022-11-28T02:11:46.446Z,6.10
2022-11-28T02:14:26.799Z,6.10
2022-11-28T02:17:06.275Z,6.10
2022-11-28T02:20:14.964Z,6.00
2022-11-28T02:22:51.042Z,6.00
2022-11-28T02:25:39.206Z,6.00
2022-11-28T02:28:33.363Z,6.00
2022-11-28T02:31:18.206Z,6.00
2022-11-28T02:33:51.162Z,6.00
2022-11-28T02:36:24.988Z,6.00
2022-11-28T02:39:03.510Z,6.00
2022-11-28T02:41:35.821Z,6.00
2022-11-28T02:44:13.214Z,6.00
2022-11-28T02:46:49.495Z,6.00
2022-11-28T02:49:24.269Z,6.00
2022-11-28T02:51:57.604Z,6.00
2022-11-28T02:54:27.597Z,6.00
2022-11-28T02:56:56.263Z,6.00
2022-11-28T02:59:46.587Z,6.00
2022-11-28T03:02:18.451Z,6.00
2022-11-28T03:04:56.432Z,6.00
2022-11-28T03:07:36.947Z,6.10
2022-11-28T03:10:15.436Z,6.00
2022-11-28T03:12:52.882Z,6.10
2022-11-28T03:15:25.052Z,6.00
2022-11-28T03:18:02.837Z,6.00
2022-11-28T03:20:40.134Z,6.10
2022-11-28T03:23:16.240Z,6.10
2022-11-28T03:25:56.486Z,6.10
2022-11-28T03:28:28.497Z,6.10
2022-11-28T03:31:00.152Z,6.10
2022-11-28T03:33:31.723Z,6.10
2022-11-28T03:36:06.214Z,6.10
2022-11-28T03:38:39.388Z,6.10
2022-11-28T03:41:14.156Z,6.10
2022-11-28T03:43:47.724Z,6.10
2022-11-28T03:46:19.490Z,6.00
2022-11-28T03:48:50.593Z,6.10
2022-11-28T03:51:23.105Z,6.00
2022-11-28T03:53:57.229Z,6.00
2022-11-28T03:56:34.454Z,6.00
2022-11-28T03:59:08.044Z,6.00
2022-11-28T04:01:45.348Z,6.00
2022-11-28T04:04:21.103Z,6.00
2022-11-28T04:06:59.117Z,6.00
2022-11-28T04:09:40.175Z,6.00
2022-11-28T04:12:15.922Z,6.00
2022-11-28T04:14:50.264Z,6.00
2022-11-28T04:17:26.338Z,6.00
2022-11-28T04:20:02.021Z,6.00
2022-11-28T04:22:35.197Z,6.00
2022-11-28T04:25:08.061Z,6.00
2022-11-28T04:27:39.805Z,6.00
2022-11-28T04:30:09.824Z,6.00
2022-11-28T04:32:41.555Z,6.00
2022-11-28T04:35:13.817Z,6.00
2022-11-28T04:37:48.589Z,6.00
2022-11-28T04:40:18.913Z,6.10
2022-11-28T04:42:52.970Z,6.00
2022-11-28T04:45:26.915Z,6.10
2022-11-28T04:47:55.954Z,6.10
2022-11-28T04:50:29.519Z,6.10
2022-11-28T04:53:05.252Z,6.10
2022-11-28T04:55:38.500Z,6.10
2022-11-28T04:58:13.796Z,6.00
2022-11-28T05:00:42.412Z,6.00
2022-11-28T05:03:11.428Z,6.00
2022-11-28T05:05:47.065Z,6.10
2022-11-28T05:08:16.905Z,6.10
2022-11-28T05:10:44.944Z,6.10
2022-11-28T05:13:13.081Z,6.00
2022-11-28T05:15:41.360Z,6.00
2022-11-28T05:18:09.522Z,6.00
2022-11-28T05:20:38.739Z,6.00
2022-11-28T05:23:07.223Z,6.00
2022-11-28T05:25:38.977Z,6.10
2022-11-28T05:28:07.004Z,6.10
2022-11-28T05:30:35.028Z,6.10
2022-11-28T05:33:03.673Z,6.10
2022-11-28T05:35:31.668Z,6.10
2022-11-28T05:37:59.671Z,6.10
2022-11-28T05:40:27.668Z,6.10
2022-11-28T05:42:56.989Z,6.10
2022-11-28T05:45:25.007Z,6.10
2022-11-28T05:47:53.050Z,6.10
2022-11-28T05:50:21.037Z,6.10
2022-11-28T05:52:49.048Z,6.10
2022-11-28T05:55:17.315Z,6.10
2022-11-28T05:57:45.328Z,6.10
2022-11-28T06:00:15.885Z,6.10
2022-11-28T06:02:43.949Z,6.10
2022-11-28T06:05:40.353Z,6.10
2022-11-28T06:07:59.974Z,6.10
2022-11-28T06:10:27.981Z,6.10
2022-11-28T06:12:56.475Z,6.10
2022-11-28T06:15:25.898Z,6.10
2022-11-28T06:17:53.899Z,6.10
2022-11-28T06:20:21.902Z,6.10
2022-11-28T06:22:49.884Z,6.10
2022-11-28T06:25:18.092Z,6.10
2022-11-28T06:27:46.098Z,6.10
2022-11-28T06:30:15.064Z,6.10
2022-11-28T06:32:44.400Z,6.10
2022-11-28T06:35:12.384Z,6.10
2022-11-28T06:37:40.502Z,6.00
2022-11-28T06:40:10.977Z,6.00
2022-11-28T06:42:39.184Z,6.00
2022-11-28T06:45:09.185Z,6.00
2022-11-28T06:47:37.220Z,6.00
2022-11-28T06:50:09.540Z,6.00
2022-11-28T06:52:37.841Z,6.00
2022-11-28T06:55:06.427Z,6.00
2022-11-28T06:57:35.646Z,5.90
2022-11-28T07:00:04.537Z,5.90
2022-11-28T07:02:33.309Z,5.90
2022-11-28T07:05:01.341Z,5.90
2022-11-28T07:07:30.813Z,5.90
2022-11-28T07:09:58.829Z,5.90
2022-11-28T07:12:26.850Z,5.90
2022-11-28T07:14:54.914Z,5.90
2022-11-28T07:17:23.020Z,5.80
2022-11-28T07:19:54.952Z,5.80
2022-11-28T07:22:24.055Z,5.80
2022-11-28T07:24:53.421Z,5.80
2022-11-28T07:27:21.393Z,5.90
2022-11-28T07:29:49.525Z,5.90
2022-11-28T07:32:17.522Z,5.80
2022-11-28T07:34:50.010Z,5.90
2022-11-28T07:37:18.352Z,5.80
2022-11-28T07:39:46.340Z,5.80
2022-11-28T07:42:15.771Z,5.90
2022-11-28T07:44:48.348Z,5.80
2022-11-28T07:47:16.360Z,5.80
2022-11-28T07:49:44.626Z,5.80
2022-11-28T07:52:12.860Z,5.80
2022-11-28T07:54:40.976Z,5.80
2022-11-28T07:57:13.246Z,5.80
2022-11-28T07:59:43.655Z,5.80
2022-11-28T08:02:12.014Z,5.80
2022-11-28T08:04:48.397Z,5.80
2022-11-28T08:07:19.692Z,5.80
2022-11-28T08:09:47.762Z,5.80
2022-11-28T08:12:15.750Z,5.80
2022-11-28T08:14:45.316Z,5.80
2022-11-28T08:17:13.538Z,5.80
2022-11-28T08:19:41.538Z,5.70
2022-11-28T08:22:09.529Z,5.70
2022-11-28T08:24:37.649Z,5.80
2022-11-28T08:27:05.670Z,5.70
2022-11-28T08:29:33.677Z,5.70
2022-11-28T08:32:05.524Z,5.70
2022-11-28T08:34:33.848Z,5.80
2022-11-28T08:37:01.982Z,5.70
2022-11-28T08:39:29.990Z,5.70
2022-11-28T08:41:58.935Z,5.70
2022-11-28T08:44:30.220Z,5.70
2022-11-28T08:46:58.674Z,5.70
2022-11-28T08:49:28.036Z,5.70
2022-11-28T08:51:56.062Z,5.70
2022-11-28T08:54:24.091Z,5.70
2022-11-28T08:56:52.147Z,5.70
2022-11-28T08:59:20.442Z,5.70
2022-11-28T09:01:48.524Z,5.70
2022-11-28T09:04:16.645Z,5.70
2022-11-28T09:06:46.092Z,5.70
2022-11-28T09:09:14.265Z,5.70
2022-11-28T09:11:42.449Z,5.70
2022-11-28T09:14:10.482Z,5.70
2022-11-28T09:16:39.469Z,5.70
2022-11-28T09:19:09.246Z,5.60
2022-11-28T09:21:37.792Z,5.70
2022-11-28T09:24:08.695Z,5.60
2022-11-28T09:26:36.675Z,5.60
2022-11-28T09:29:04.692Z,5.60
2022-11-28T09:31:32.783Z,5.60
2022-11-28T09:34:00.844Z,5.60
2022-11-28T09:36:28.824Z,5.60
2022-11-28T09:38:56.853Z,5.60
2022-11-28T09:41:43.287Z,5.60
2022-11-28T09:44:19.277Z,5.70
2022-11-28T09:46:48.664Z,5.70
2022-11-28T09:49:26.364Z,5.60
2022-11-28T09:51:59.175Z,5.60
2022-11-28T09:54:38.116Z,5.60
2022-11-28T09:57:12.903Z,5.60
2022-11-28T09:59:42.092Z,5.60
2022-11-28T10:02:24.446Z,5.60
2022-11-28T10:05:01.195Z,5.60
2022-11-28T10:07:37.670Z,5.60
2022-11-28T10:10:15.601Z,5.60
2022-11-28T10:12:58.514Z,5.60
2022-11-28T10:15:36.993Z,5.60
2022-11-28T10:18:18.912Z,5.60
2022-11-28T10:20:49.983Z,5.60
2022-11-28T10:23:24.522Z,5.60
2022-11-28T10:25:56.036Z,5.60
2022-11-28T10:28:29.941Z,5.60
2022-11-28T10:31:03.944Z,5.60
2022-11-28T10:33:38.024Z,5.60
2022-11-28T10:36:07.469Z,5.60
2022-11-28T10:38:37.493Z,5.50
2022-11-28T10:41:14.135Z,5.60
2022-11-28T10:43:47.875Z,5.60
2022-11-28T10:46:32.157Z,5.60
2022-11-28T10:49:11.566Z,5.60
2022-11-28T10:51:49.562Z,5.60
2022-11-28T10:54:26.690Z,5.60
2022-11-28T10:57:04.182Z,5.60
2022-11-28T10:59:42.932Z,5.60
2022-11-28T11:02:21.740Z,5.50
2022-11-28T11:04:49.890Z,5.50
2022-11-28T11:07:29.161Z,5.50
2022-11-28T11:10:00.612Z,5.50
2022-11-28T11:12:32.520Z,5.50
2022-11-28T11:15:17.057Z,5.50
2022-11-28T11:17:45.179Z,5.50
2022-11-28T11:20:34.543Z,5.50
2022-11-28T11:23:04.531Z,5.50
2022-11-28T11:25:33.597Z,5.50
2022-11-28T11:28:04.521Z,5.50
2022-11-28T11:30:38.475Z,5.60
2022-11-28T11:33:13.171Z,5.60
2022-11-28T11:35:45.632Z,5.60
2022-11-28T11:38:19.501Z,5.60
2022-11-28T11:40:48.172Z,5.50
2022-11-28T11:43:29.354Z,5.50
2022-11-28T11:46:10.613Z,5.50
2022-11-28T11:48:41.526Z,5.50
2022-11-28T11:51:23.539Z,5.50
2022-11-28T11:54:02.376Z,5.60
2022-11-28T11:56:32.791Z,5.60
2022-11-28T11:59:04.219Z,5.60
2022-11-28T12:01:36.056Z,5.60
2022-11-28T12:04:37.093Z,5.60
2022-11-28T12:06:58.487Z,5.60
2022-11-28T12:09:32.732Z,5.60
2022-11-28T12:12:06.104Z,5.60
2022-11-28T12:14:36.197Z,5.60
2022-11-28T12:17:52.380Z,5.60
2022-11-28T12:20:32.929Z,5.60
2022-11-28T12:23:13.020Z,5.60
2022-11-28T12:25:50.056Z,5.60
2022-11-28T12:28:30.036Z,5.60
2022-11-28T12:31:08.393Z,5.60
2022-11-28T12:33:48.636Z,5.60
2022-11-28T12:36:25.076Z,5.70
2022-11-28T12:39:16.218Z,5.70
2022-11-28T12:42:14.340Z,5.60
2022-11-28T12:44:58.321Z,5.60
2022-11-28T12:47:37.734Z,5.60
2022-11-28T12:50:17.897Z,5.70
2022-11-28T12:52:54.546Z,5.70
2022-11-28T12:55:29.431Z,5.60
2022-11-28T12:58:07.184Z,5.60
2022-11-28T13:00:40.362Z,5.60
2022-11-28T13:03:14.724Z,5.60
2022-11-28T13:05:57.999Z,5.60
2022-11-28T13:08:55.739Z,5.50
2022-11-28T13:11:40.061Z,5.60
2022-11-28T13:14:19.141Z,5.60
2022-11-28T13:16:50.674Z,5.60
2022-11-28T13:19:33.592Z,5.60
2022-11-28T13:22:12.329Z,5.60
2022-11-28T13:24:49.188Z,5.50
2022-11-28T13:27:25.575Z,5.60
2022-11-28T13:30:03.779Z,5.50
2022-11-28T13:32:40.154Z,5.50
2022-11-28T13:35:13.656Z,5.50
2022-11-28T13:40:42.758Z,5.60
2022-11-28T13:43:18.017Z,5.60
2022-11-28T13:45:47.767Z,5.60
2022-11-28T13:49:15.385Z,5.50
2022-11-28T13:51:43.923Z,5.60
2022-11-28T13:54:52.595Z,5.60
2022-11-28T13:57:30.982Z,5.60
2022-11-28T14:00:04.502Z,5.50
2022-11-28T14:02:45.702Z,5.50
2022-11-28T14:05:29.861Z,5.50
2022-11-28T14:07:58.830Z,5.50
2022-11-28T14:11:08.482Z,5.50
2022-11-28T14:13:56.914Z,5.60
2022-11-28T14:16:39.558Z,5.60
2022-11-28T14:19:27.245Z,5.60
2022-11-28T14:22:08.836Z,5.70
2022-11-28T14:25:00.267Z,5.70
2022-11-28T14:27:33.140Z,5.70
2022-11-28T14:30:02.242Z,5.60
2022-11-28T14:32:35.666Z,5.60
2022-11-28T14:35:07.303Z,5.70
2022-11-28T14:37:57.724Z,5.60
2022-11-28T14:41:06.159Z,5.60
2022-11-28T14:43:38.089Z,5.60
2022-11-28T14:46:29.826Z,5.60
2022-11-28T14:49:21.498Z,5.60
2022-11-28T14:52:38.290Z,5.70
2022-11-28T14:55:18.590Z,5.60
2022-11-28T14:57:59.030Z,5.60
2022-11-28T15:00:31.512Z,5.60
2022-11-28T15:03:27.666Z,5.60
2022-11-28T15:05:59.960Z,5.60
2022-11-28T15:08:58.922Z,5.60
2022-11-28T15:11:42.484Z,5.60
2022-11-28T15:14:21.117Z,5.60
2022-11-28T15:16:55.563Z,5.60
2022-11-28T15:19:28.291Z,5.60
2022-11-28T15:21:57.254Z,5.60
2022-11-28T15:24:28.953Z,5.70
2022-11-28T15:26:59.034Z,5.60
2022-11-28T15:29:28.989Z,5.60
2022-11-28T15:31:59.267Z,5.50
2022-11-28T15:34:30.011Z,5.60
2022-11-28T15:37:00.554Z,5.60
2022-11-28T15:39:34.771Z,5.60
2022-11-28T15:42:06.163Z,5.50
2022-11-28T15:44:36.497Z,5.50
2022-11-28T15:47:06.648Z,5.50
2022-11-28T15:49:38.481Z,5.50
2022-11-28T15:52:07.080Z,5.40
2022-11-28T15:54:37.904Z,5.50
2022-11-28T15:57:06.983Z,5.40
2022-11-28T15:59:35.281Z,5.40
2022-11-28T16:02:14.074Z,5.40
2022-11-28T16:04:42.893Z,5.40
2022-11-28T16:07:14.686Z,5.40
2022-11-28T16:09:54.440Z,5.40
2022-11-28T16:12:22.697Z,5.40
2022-11-28T16:14:53.274Z,5.40
2022-11-28T16:17:28.179Z,5.50
2022-11-28T16:19:57.360Z,5.50
2022-11-28T16:22:31.339Z,5.50
2022-11-28T16:25:11.707Z,5.40
2022-11-28T16:27:42.073Z,5.40
2022-11-28T16:30:26.514Z,5.40
2022-11-28T16:32:57.420Z,5.50
2022-11-28T16:35:28.209Z,5.50
2022-11-28T16:38:06.048Z,5.40
2022-11-28T16:40:34.261Z,5.40
2022-11-28T16:43:04.911Z,5.40
2022-11-28T16:45:35.037Z,5.40
2022-11-28T16:48:11.249Z,5.40
2022-11-28T16:50:39.620Z,5.40
2022-11-28T16:53:07.715Z,5.40
2022-11-28T16:55:46.116Z,5.40
2022-11-28T16:58:22.928Z,5.30
2022-11-28T17:01:03.440Z,5.30
2022-11-28T17:03:48.211Z,5.30
2022-11-28T17:06:19.869Z,5.30
2022-11-28T17:08:47.924Z,5.20
2022-11-28T17:11:18.846Z,5.20
2022-11-28T17:13:47.118Z,5.20
2022-11-28T17:16:20.759Z,5.30
2022-11-28T17:18:50.885Z,5.20
2022-11-28T17:21:25.852Z,5.20
2022-11-28T17:23:53.864Z,5.30
2022-11-28T17:26:22.018Z,5.20
2022-11-28T17:28:50.005Z,5.20
2022-11-28T17:31:18.035Z,5.30
2022-11-28T17:33:46.039Z,5.90
2022-11-28T17:36:15.497Z,5.90
2022-11-28T17:38:43.525Z,6.40
2022-11-28T17:41:14.431Z,6.40
2022-11-28T17:43:43.038Z,6.10
2022-11-28T17:46:11.396Z,5.80
2022-11-28T17:48:39.443Z,5.60
2022-11-28T17:51:07.516Z,5.60
2022-11-28T17:53:38.076Z,5.60
2022-11-28T17:56:06.653Z,5.50
2022-11-28T17:58:34.675Z,5.60
2022-11-28T18:01:02.682Z,6.70
2022-11-28T18:03:30.722Z,6.40
2022-11-28T18:05:58.736Z,6.00
2022-11-28T18:08:26.789Z,5.80
2022-11-28T18:11:05.431Z,5.70
2022-11-28T18:13:36.235Z,5.60
2022-11-28T18:16:04.830Z,5.50
2022-11-28T18:18:34.519Z,5.60
2022-11-28T18:21:03.184Z,5.50
2022-11-28T18:23:31.332Z,5.60
2022-11-28T18:26:02.341Z,5.40
2022-11-28T18:28:33.663Z,5.50
2022-11-28T18:31:09.269Z,5.50
2022-11-28T18:33:37.706Z,5.50
2022-11-28T18:36:11.582Z,5.50
2022-11-28T18:38:40.545Z,5.50
2022-11-28T18:41:10.393Z,5.40
2022-11-28T18:43:40.030Z,5.40
2022-11-28T18:46:10.231Z,5.40
2022-11-28T18:48:41.228Z,5.40
2022-11-28T18:51:13.659Z,5.30
2022-11-28T18:53:41.944Z,5.30
2022-11-28T18:56:10.656Z,5.40
2022-11-28T18:58:42.352Z,5.30
2022-11-28T19:01:12.096Z,5.30
2022-11-28T19:03:40.588Z,5.30
2022-11-28T19:06:11.752Z,5.20
2022-11-28T19:08:41.172Z,5.30
2022-11-28T19:11:10.929Z,5.30
2022-11-28T19:13:40.936Z,5.20
2022-11-28T19:16:10.502Z,5.20
2022-11-28T19:18:39.938Z,5.30
2022-11-28T19:21:11.528Z,5.20
2022-11-28T19:23:40.579Z,5.20
2022-11-28T19:26:10.224Z,5.20
2022-11-28T19:28:41.877Z,5.20
2022-11-28T19:31:13.382Z,5.20
2022-11-28T19:33:41.617Z,5.20
2022-11-28T19:36:11.456Z,5.20
2022-11-28T19:38:40.792Z,5.20
2022-11-28T19:41:09.009Z,5.20
2022-11-28T19:43:37.793Z,5.20
2022-11-28T19:46:07.767Z,5.20
2022-11-28T19:48:37.878Z,5.30
2022-11-28T19:51:06.957Z,5.20
2022-11-28T19:53:37.532Z,5.20
2022-11-28T19:56:07.048Z,5.10
2022-11-28T19:58:36.697Z,5.10
2022-11-28T20:01:07.282Z,5.10
2022-11-28T20:03:39.222Z,5.10
2022-11-28T20:06:09.884Z,5.10
2022-11-28T20:08:39.122Z,5.20
2022-11-28T20:11:12.760Z,5.10
2022-11-28T20:13:41.045Z,5.10
2022-11-28T20:16:11.893Z,5.10
2022-11-28T20:18:41.668Z,5.20
2022-11-28T20:21:11.925Z,5.10
2022-11-28T20:23:41.308Z,5.10
2022-11-28T20:26:10.946Z,5.20
2022-11-28T20:28:40.337Z,5.10
2022-11-28T20:31:18.798Z,5.20
2022-11-28T20:33:47.726Z,5.20
2022-11-28T20:36:20.048Z,5.20
2022-11-28T20:38:48.906Z,5.20
2022-11-28T20:41:20.547Z,5.20
2022-11-28T20:43:48.637Z,5.10
2022-11-28T20:46:19.526Z,5.10
2022-11-28T20:48:48.546Z,5.10
2022-11-28T20:51:17.913Z,5.10
2022-11-28T20:53:46.131Z,5.10
2022-11-28T20:56:16.801Z,5.20
2022-11-28T20:58:45.022Z,5.10
2022-11-28T21:01:16.048Z,5.10
2022-11-28T21:03:45.584Z,5.00
2022-11-28T21:06:13.857Z,5.10
2022-11-28T21:08:42.517Z,5.10
2022-11-28T21:11:30.653Z,5.20
2022-11-28T21:14:02.148Z,5.10
2022-11-28T21:16:32.798Z,5.20
2022-11-28T21:19:05.881Z,5.10
2022-11-28T21:21:36.122Z,5.10
2022-11-28T21:24:06.504Z,5.10
2022-11-28T21:26:40.472Z,5.10
2022-11-28T21:29:09.884Z,5.00
2022-11-28T21:31:43.032Z,5.10
2022-11-28T21:34:14.530Z,5.00
2022-11-28T21:36:43.467Z,5.00
2022-11-28T21:39:14.675Z,5.00
2022-11-28T21:41:42.941Z,5.00
2022-11-28T21:44:10.918Z,5.00
2022-11-28T21:46:39.312Z,5.10
2022-11-28T21:49:07.421Z,5.00
2022-11-28T21:51:41.619Z,5.00
2022-11-28T21:54:11.650Z,5.10
2022-11-28T21:56:39.814Z,5.10
2022-11-28T21:59:07.962Z,5.20
2022-11-28T22:01:36.210Z,5.10
2022-11-28T22:04:05.065Z,5.20
2022-11-28T22:06:34.039Z,5.20
2022-11-28T22:09:08.985Z,5.20
2022-11-28T22:11:38.757Z,5.10
2022-11-28T22:14:06.835Z,5.20
2022-11-28T22:16:34.934Z,5.30
2022-11-28T22:19:03.995Z,5.20
2022-11-28T22:24:23.274Z,5.30
2022-11-28T22:26:51.954Z,5.20
2022-11-28T22:29:20.713Z,5.10
2022-11-28T22:31:50.983Z,5.10
2022-11-28T22:34:20.403Z,5.20
2022-11-28T22:36:49.905Z,5.20
2022-11-28T22:39:20.726Z,5.20
2022-11-28T22:41:51.122Z,5.40
2022-11-28T22:44:20.868Z,5.30
2022-11-28T22:46:48.855Z,5.20
2022-11-28T22:49:17.011Z,5.30
2022-11-28T22:51:45.151Z,5.20
2022-11-28T22:54:14.388Z,5.30
2022-11-28T22:56:42.530Z,5.30
2022-11-28T22:59:15.016Z,5.30
2022-11-28T23:01:43.524Z,5.20
2022-11-28T23:04:12.184Z,5.30
2022-11-28T23:06:40.697Z,5.40
2022-11-28T23:09:11.311Z,5.30
2022-11-28T23:11:40.616Z,5.50
2022-11-28T23:14:09.180Z,5.60
2022-11-28T23:16:40.438Z,5.40
2022-11-28T23:19:11.850Z,5.40
2022-11-28T23:21:42.591Z,5.50
2022-11-28T23:24:14.264Z,5.40
2022-11-28T23:26:42.352Z,5.30
2022-11-28T23:29:10.577Z,5.20
2022-11-28T23:31:41.888Z,5.20
2022-11-28T23:34:11.025Z,5.30
2022-11-28T23:36:42.661Z,5.30
2022-11-28T23:39:13.525Z,5.30
2022-11-28T23:41:42.103Z,5.20
2022-11-28T23:44:11.715Z,5.30
2022-11-28T23:46:41.163Z,5.30
2022-11-28T23:49:09.396Z,5.20
2022-11-28T23:51:38.235Z,5.20
2022-11-28T23:54:06.352Z,5.20
2022-11-28T23:56:36.577Z,5.20
2022-11-28T23:59:06.445Z,5.40
